createdAt,value
2019-02-04T00:01:26.619Z,26.80
2019-02-04T00:03:56.378Z,26.00
2019-02-04T00:06:25.810Z,26.00
2019-02-04T00:08:55.883Z,26.77
2019-02-04T00:11:25.312Z,27.03
2019-02-04T00:13:55.524Z,24.93
2019-02-04T00:16:25.400Z,27.53
2019-02-04T00:18:54.692Z,25.53
2019-02-04T00:21:24.260Z,23.87
2019-02-04T00:23:53.714Z,26.30
2019-02-04T00:26:23.220Z,25.40
2019-02-04T00:28:52.803Z,25.80
2019-02-04T00:31:22.598Z,25.07
2019-02-04T00:33:52.028Z,22.80
2019-02-04T00:36:21.575Z,24.83
2019-02-04T00:38:51.055Z,26.73
2019-02-04T00:41:20.447Z,22.53
2019-02-04T00:43:49.727Z,22.60
2019-02-04T00:46:19.168Z,21.77
2019-02-04T00:48:48.684Z,20.70
2019-02-04T00:51:18.070Z,21.80
2019-02-04T00:53:47.455Z,25.70
2019-02-04T00:56:16.867Z,23.73
2019-02-04T00:58:46.294Z,23.73
2019-02-04T01:01:15.707Z,24.93
2019-02-04T01:03:45.148Z,25.07
2019-02-04T01:06:14.531Z,24.07
2019-02-04T01:08:44.070Z,23.47
2019-02-04T01:11:13.656Z,26.33
2019-02-04T01:13:43.369Z,27.23
2019-02-04T01:16:12.840Z,26.03
2019-02-04T01:18:42.482Z,27.43
2019-02-04T01:21:12.238Z,28.10
2019-02-04T01:23:41.602Z,25.97
2019-02-04T01:26:10.982Z,25.57
2019-02-04T01:28:40.649Z,24.23
2019-02-04T01:31:10.058Z,25.10
2019-02-04T01:33:39.647Z,25.93
2019-02-04T01:36:09.059Z,28.80
2019-02-04T01:38:38.401Z,26.57
2019-02-04T01:41:07.776Z,27.03
2019-02-04T01:43:37.321Z,25.47
2019-02-04T01:46:06.676Z,27.27
2019-02-04T01:48:36.210Z,27.57
2019-02-04T01:51:06.114Z,28.17
2019-02-04T01:53:35.526Z,23.00
2019-02-04T01:56:05.297Z,25.63
2019-02-04T01:58:34.754Z,23.90
2019-02-04T02:01:04.425Z,26.43
2019-02-04T02:03:33.827Z,28.13
2019-02-04T02:06:03.196Z,27.10
2019-02-04T02:08:32.631Z,25.33
2019-02-04T02:11:01.998Z,25.00
2019-02-04T02:13:31.519Z,28.90
2019-02-04T02:16:00.967Z,27.60
2019-02-04T02:18:30.281Z,24.90
2019-02-04T02:20:59.930Z,28.27
2019-02-04T02:23:29.666Z,26.20
2019-02-04T02:25:59.037Z,24.67
2019-02-04T02:28:28.469Z,23.17
2019-02-04T02:30:58.000Z,21.63
2019-02-04T02:33:27.487Z,23.43
2019-02-04T02:35:56.937Z,25.37
2019-02-04T02:38:26.823Z,23.17
2019-02-04T02:40:56.240Z,20.30
2019-02-04T02:43:25.730Z,21.77
2019-02-04T02:45:55.160Z,22.33
2019-02-04T02:48:24.636Z,21.23
2019-02-04T02:50:54.117Z,20.03
2019-02-04T02:53:23.855Z,20.80
2019-02-04T02:55:53.327Z,18.00
2019-02-04T02:58:22.717Z,18.67
2019-02-04T03:00:52.143Z,19.43
2019-02-04T03:03:21.648Z,17.87
2019-02-04T03:05:51.026Z,16.73
2019-02-04T03:08:20.635Z,15.90
2019-02-04T03:10:49.947Z,17.50
2019-02-04T03:13:19.339Z,18.87
2019-02-04T03:15:48.640Z,16.63
2019-02-04T03:18:17.995Z,15.83
2019-02-04T03:20:47.442Z,16.93
2019-02-04T03:23:16.922Z,15.50
2019-02-04T03:25:46.279Z,14.87
2019-02-04T03:28:15.706Z,19.87
2019-02-04T03:30:45.162Z,16.40
2019-02-04T03:33:14.514Z,17.03
2019-02-04T03:35:44.435Z,17.97
2019-02-04T03:38:14.036Z,17.80
2019-02-04T03:40:43.516Z,15.00
2019-02-04T03:43:12.930Z,15.80
2019-02-04T03:45:42.310Z,15.53
2019-02-04T03:48:11.839Z,15.87
2019-02-04T03:50:41.195Z,15.27
2019-02-04T03:53:10.559Z,13.33
2019-02-04T03:55:39.994Z,13.80
2019-02-04T03:58:09.339Z,17.20
2019-02-04T04:00:38.747Z,14.30
2019-02-04T04:03:08.462Z,13.97
2019-02-04T04:05:37.951Z,14.53
2019-02-04T04:08:07.381Z,14.33
2019-02-04T04:10:36.928Z,13.27
2019-02-04T04:13:06.359Z,13.63
2019-02-04T04:15:35.731Z,13.17
2019-02-04T04:18:15.570Z,11.13
2019-02-04T04:20:36.401Z,13.53
2019-02-04T04:23:05.861Z,13.17
2019-02-04T04:25:35.401Z,14.23
2019-02-04T04:28:04.844Z,12.57
2019-02-04T04:30:34.303Z,13.20
2019-02-04T04:33:03.751Z,11.10
2019-02-04T04:35:33.145Z,12.90
2019-02-04T04:38:02.750Z,10.33
2019-02-04T04:40:32.243Z,12.73
2019-02-04T04:43:01.660Z,10.17
2019-02-04T04:45:31.674Z,10.97
2019-02-04T04:48:01.003Z,10.57
2019-02-04T04:50:30.604Z,9.33
2019-02-04T04:52:59.907Z,10.93
2019-02-04T04:55:29.156Z,11.40
2019-02-04T04:57:58.656Z,12.57
2019-02-04T05:00:30.573Z,11.97
2019-02-04T05:03:00.169Z,13.03
2019-02-04T05:05:29.762Z,11.87
2019-02-04T05:07:59.134Z,13.60
2019-02-04T05:10:28.867Z,12.10
2019-02-04T05:12:58.350Z,12.00
2019-02-04T05:15:28.361Z,12.87
2019-02-04T05:17:57.978Z,13.60
2019-02-04T05:20:27.350Z,12.80
2019-02-04T05:22:56.886Z,14.20
2019-02-04T05:25:26.336Z,14.80
2019-02-04T05:27:56.095Z,13.67
2019-02-04T05:30:25.940Z,14.73
2019-02-04T05:32:55.452Z,15.23
2019-02-04T05:35:24.886Z,16.93
2019-02-04T05:37:54.333Z,16.07
2019-02-04T05:40:23.784Z,16.77
2019-02-04T05:42:53.162Z,15.27
2019-02-04T05:45:22.666Z,18.80
2019-02-04T05:47:52.302Z,19.40
2019-02-04T05:50:22.056Z,19.10
2019-02-04T05:52:51.440Z,19.50
2019-02-04T05:55:22.517Z,19.60
2019-02-04T05:57:52.405Z,19.37
2019-02-04T06:00:32.783Z,20.57
2019-02-04T06:03:02.239Z,22.07
2019-02-04T06:05:31.824Z,21.80
2019-02-04T06:08:01.625Z,19.00
2019-02-04T06:10:31.050Z,19.43
2019-02-04T06:13:00.708Z,19.77
2019-02-04T06:15:30.158Z,20.93
2019-02-04T06:17:59.692Z,23.27
2019-02-04T06:20:29.137Z,22.67
2019-02-04T06:22:58.520Z,23.23
2019-02-04T06:25:28.237Z,21.93
2019-02-04T06:27:57.583Z,20.57
2019-02-04T06:30:27.056Z,18.30
2019-02-04T06:32:56.500Z,16.90
2019-02-04T06:35:26.303Z,17.57
2019-02-04T06:37:55.774Z,17.93
2019-02-04T06:40:25.355Z,17.33
2019-02-04T06:42:54.938Z,18.60
2019-02-04T06:45:24.363Z,16.43
2019-02-04T06:47:54.101Z,19.13
2019-02-04T06:50:23.811Z,16.73
2019-02-04T06:52:53.436Z,15.60
2019-02-04T06:55:28.692Z,16.80
2019-02-04T06:57:58.260Z,16.30
2019-02-04T07:00:27.923Z,21.20
2019-02-04T07:02:57.455Z,18.33
2019-02-04T07:05:26.996Z,22.13
2019-02-04T07:07:56.392Z,19.23
2019-02-04T07:10:26.464Z,24.67
2019-02-04T07:12:55.732Z,21.07
2019-02-04T07:15:25.160Z,25.77
2019-02-04T07:17:55.204Z,25.47
2019-02-04T07:20:25.686Z,28.43
2019-02-04T07:22:55.073Z,26.17
2019-02-04T07:25:25.258Z,32.40
2019-02-04T07:27:54.803Z,31.57
2019-02-04T07:30:26.081Z,30.67
2019-02-04T07:32:56.078Z,26.03
2019-02-04T07:35:25.785Z,25.33
2019-02-04T07:37:55.367Z,24.93
2019-02-04T07:40:27.227Z,25.93
2019-02-04T07:42:57.094Z,22.80
2019-02-04T07:45:26.488Z,28.17
2019-02-04T07:47:55.973Z,25.77
2019-02-04T07:50:25.751Z,26.33
2019-02-04T07:52:55.260Z,25.77
2019-02-04T07:55:24.790Z,24.47
2019-02-04T07:57:57.017Z,23.27
2019-02-04T08:00:27.456Z,25.10
2019-02-04T08:02:56.974Z,21.60
2019-02-04T08:05:26.374Z,22.90
2019-02-04T08:07:56.269Z,21.57
2019-02-04T08:10:25.694Z,22.70
2019-02-04T08:13:01.639Z,22.53
2019-02-04T08:15:28.951Z,27.90
2019-02-04T08:17:58.632Z,24.90
2019-02-04T08:20:28.299Z,23.47
2019-02-04T08:22:57.783Z,23.87
2019-02-04T08:25:28.195Z,25.03
2019-02-04T08:27:58.011Z,23.67
2019-02-04T08:30:32.471Z,25.60
2019-02-04T08:33:01.831Z,23.27
2019-02-04T08:35:32.104Z,24.67
2019-02-04T08:38:01.636Z,22.47
2019-02-04T08:40:31.781Z,23.87
2019-02-04T08:43:01.208Z,28.37
2019-02-04T08:45:30.792Z,27.97
2019-02-04T08:48:00.191Z,29.67
2019-02-04T08:50:29.846Z,35.23
2019-02-04T08:52:59.246Z,36.10
2019-02-04T08:55:28.627Z,37.63
2019-02-04T08:57:58.219Z,36.50
2019-02-04T09:00:28.356Z,32.17
2019-02-04T09:02:57.751Z,26.70
2019-02-04T09:05:27.649Z,21.07
2019-02-04T09:07:57.295Z,23.97
2019-02-04T09:10:29.461Z,23.47
2019-02-04T09:12:59.347Z,26.60
2019-02-04T09:15:29.430Z,32.27
2019-02-04T09:17:59.923Z,28.87
2019-02-04T09:20:29.615Z,29.37
2019-02-04T09:22:59.345Z,30.70
2019-02-04T09:25:28.981Z,33.67
2019-02-04T09:27:58.946Z,28.60
2019-02-04T09:30:28.748Z,29.83
2019-02-04T09:32:58.735Z,28.13
2019-02-04T09:35:28.498Z,28.97
2019-02-04T09:37:57.796Z,32.13
2019-02-04T09:40:32.965Z,32.37
2019-02-04T09:43:02.451Z,31.27
2019-02-04T09:45:31.817Z,31.23
2019-02-04T09:48:01.210Z,31.87
2019-02-04T09:50:32.480Z,31.37
2019-02-04T09:53:02.246Z,30.80
2019-02-04T09:55:34.073Z,32.77
2019-02-04T09:58:03.541Z,32.27
2019-02-04T10:00:34.496Z,31.90
2019-02-04T10:03:04.211Z,32.93
2019-02-04T10:05:33.620Z,33.73
2019-02-04T10:08:03.571Z,36.87
2019-02-04T10:10:33.136Z,34.57
2019-02-04T10:13:02.576Z,32.43
2019-02-04T10:15:34.306Z,34.60
2019-02-04T10:18:03.769Z,34.43
2019-02-04T10:20:34.676Z,30.77
2019-02-04T10:23:05.209Z,34.43
2019-02-04T10:25:36.719Z,35.63
2019-02-04T10:28:07.222Z,36.93
2019-02-04T10:33:47.287Z,37.57
2019-02-04T10:36:16.734Z,35.07
2019-02-04T10:38:46.148Z,33.50
2019-02-04T10:41:16.284Z,34.73
2019-02-04T10:43:45.566Z,34.33
2019-02-04T10:46:16.093Z,38.37
2019-02-04T10:48:48.150Z,37.07
2019-02-04T10:51:17.593Z,38.23
2019-02-04T10:53:46.939Z,36.97
2019-02-04T10:56:16.528Z,33.97
2019-02-04T10:58:45.818Z,36.00
2019-02-04T11:01:15.184Z,35.03
2019-02-04T11:03:44.523Z,34.23
2019-02-04T11:06:13.924Z,33.07
2019-02-04T11:08:43.686Z,34.23
2019-02-04T11:11:13.211Z,29.93
2019-02-04T11:13:42.619Z,30.63
2019-02-04T11:16:12.794Z,27.43
2019-02-04T11:18:42.175Z,31.53
2019-02-04T11:21:11.642Z,28.97
2019-02-04T11:28:59.879Z,29.27
2019-02-04T11:31:29.499Z,30.13
2019-02-04T11:33:58.842Z,31.20
2019-02-04T11:36:28.501Z,31.43
2019-02-04T11:38:57.960Z,30.97
2019-02-04T11:41:27.567Z,29.30
2019-02-04T11:43:57.475Z,31.17
2019-02-04T11:46:48.663Z,32.20
2019-02-04T11:49:21.213Z,32.63
2019-02-04T11:51:59.868Z,33.33
2019-02-04T11:54:40.249Z,30.53
2019-02-04T11:57:14.202Z,27.87
2019-02-04T11:59:43.765Z,25.07
2019-02-04T12:02:15.931Z,25.13
2019-02-04T12:04:46.880Z,23.30
2019-02-04T12:11:09.767Z,21.17
2019-02-04T12:13:41.922Z,21.23
2019-02-04T12:16:11.497Z,25.17
2019-02-04T12:18:41.295Z,22.87
2019-02-04T12:21:21.048Z,23.73
2019-02-04T12:23:41.808Z,24.97
2019-02-04T12:26:11.289Z,22.17
2019-02-04T12:28:40.775Z,24.17
2019-02-04T12:31:10.267Z,22.67
2019-02-04T12:33:39.870Z,23.77
2019-02-04T12:36:09.387Z,20.60
2019-02-04T12:38:38.987Z,21.27
2019-02-04T12:41:08.648Z,19.53
2019-02-04T12:43:38.328Z,24.10
2019-02-04T12:46:07.932Z,23.00
2019-02-04T12:48:37.787Z,22.77
2019-02-04T12:51:07.374Z,20.93
2019-02-04T12:53:37.369Z,23.50
2019-02-04T12:56:06.798Z,22.20
2019-02-04T12:58:36.211Z,25.30
2019-02-04T13:01:06.458Z,24.77
2019-02-04T13:03:35.847Z,22.53
2019-02-04T13:06:07.435Z,23.60
2019-02-04T13:08:36.781Z,20.67
2019-02-04T13:11:06.369Z,23.77
2019-02-04T13:13:36.102Z,23.77
2019-02-04T13:16:05.951Z,23.53
2019-02-04T13:18:38.128Z,24.73
2019-02-04T13:21:07.859Z,29.10
2019-02-04T13:23:37.517Z,28.97
2019-02-04T13:26:07.164Z,28.77
2019-02-04T13:28:36.865Z,31.93
2019-02-04T13:31:06.360Z,30.87
2019-02-04T13:33:38.320Z,31.50
2019-02-04T13:36:08.161Z,32.93
2019-02-04T13:38:37.807Z,32.93
2019-02-04T13:41:09.955Z,30.63
2019-02-04T13:46:24.786Z,32.53
2019-02-04T13:48:54.549Z,35.30
2019-02-04T13:51:24.006Z,36.17
2019-02-04T13:53:57.135Z,36.00
2019-02-04T13:56:25.779Z,39.03
2019-02-04T13:58:55.271Z,36.47
2019-02-04T14:01:25.063Z,38.70
2019-02-04T14:03:54.699Z,37.00
2019-02-04T14:06:24.165Z,42.30
2019-02-04T14:08:53.554Z,45.07
2019-02-04T14:11:22.990Z,45.23
2019-02-04T14:13:52.511Z,50.50
2019-02-04T14:16:21.915Z,45.63
2019-02-04T14:18:51.401Z,47.10
2019-02-04T14:21:20.884Z,46.27
2019-02-04T14:23:50.274Z,42.90
2019-02-04T14:26:19.686Z,40.40
2019-02-04T14:34:10.788Z,46.33
2019-02-04T14:36:40.204Z,44.17
2019-02-04T14:39:14.888Z,46.03
2019-02-04T14:41:44.298Z,51.00
2019-02-04T14:44:32.349Z,47.83
2019-02-04T14:47:16.849Z,52.23
2019-02-04T14:50:17.121Z,50.40
2019-02-04T14:53:23.382Z,51.17
2019-02-04T14:56:11.498Z,47.20
2019-02-04T15:02:36.173Z,50.07
2019-02-04T15:05:32.347Z,43.27
2019-02-04T15:08:33.300Z,47.77
2019-02-04T15:11:22.827Z,45.93
2019-02-04T15:14:34.905Z,46.90
2019-02-04T15:18:03.799Z,48.53
2019-02-04T15:21:10.631Z,54.53
2019-02-04T15:24:10.660Z,52.87
2019-02-04T15:27:13.912Z,52.70
2019-02-04T15:30:28.957Z,54.27
2019-02-04T15:33:27.376Z,54.90
2019-02-04T15:36:46.572Z,54.33
2019-02-04T15:39:56.371Z,52.80
2019-02-04T15:43:12.183Z,51.20
2019-02-04T15:46:00.600Z,49.17
2019-02-04T15:49:14.024Z,52.90
2019-02-04T15:51:48.680Z,58.37
2019-02-04T15:54:18.191Z,66.23
2019-02-04T15:56:47.716Z,71.30
2019-02-04T15:59:17.030Z,71.10
2019-02-04T16:01:46.414Z,78.40
2019-02-04T16:04:47.916Z,95.20
2019-02-04T16:07:17.356Z,90.37
2019-02-04T16:09:46.820Z,94.97
2019-02-04T16:12:16.803Z,101.97
2019-02-04T16:14:46.502Z,109.27
2019-02-04T16:17:16.059Z,118.33
2019-02-04T16:19:45.467Z,111.73
2019-02-04T16:22:15.054Z,96.77
2019-02-04T16:24:44.468Z,96.20
2019-02-04T16:27:16.554Z,99.67
2019-02-04T16:29:46.004Z,96.23
2019-02-04T16:32:15.590Z,89.23
2019-02-04T16:34:45.201Z,83.20
2019-02-04T16:37:14.578Z,77.57
2019-02-04T16:39:43.978Z,78.27
2019-02-04T16:42:13.749Z,85.87
2019-02-04T16:44:43.149Z,76.10
2019-02-04T16:47:12.578Z,63.23
2019-02-04T16:49:42.107Z,65.20
2019-02-04T16:52:11.632Z,59.30
2019-02-04T16:54:40.979Z,61.27
2019-02-04T16:57:10.396Z,55.17
2019-02-04T16:59:39.898Z,57.53
2019-02-04T17:02:09.325Z,60.33
2019-02-04T17:04:38.727Z,55.27
2019-02-04T17:07:08.147Z,55.60
2019-02-04T17:09:38.831Z,57.40
2019-02-04T17:12:08.552Z,58.37
2019-02-04T17:14:37.864Z,59.87
2019-02-04T17:17:07.524Z,63.50
2019-02-04T17:19:37.867Z,65.93
2019-02-04T17:22:07.314Z,61.60
2019-02-04T17:24:36.957Z,69.03
2019-02-04T17:27:06.302Z,74.23
2019-02-04T17:29:37.488Z,70.60
2019-02-04T17:32:06.870Z,65.40
2019-02-04T17:34:36.447Z,68.60
2019-02-04T17:37:06.123Z,68.47
2019-02-04T17:39:35.589Z,68.63
2019-02-04T17:42:05.299Z,66.13
2019-02-04T17:44:34.579Z,63.43
2019-02-04T17:47:04.251Z,68.23
2019-02-04T17:49:33.664Z,59.60
2019-02-04T17:52:03.437Z,72.80
2019-02-04T17:54:32.751Z,67.87
2019-02-04T17:57:02.363Z,66.43
2019-02-04T17:59:31.660Z,101.03
2019-02-04T18:02:01.025Z,97.20
2019-02-04T18:04:30.364Z,98.60
2019-02-04T18:06:59.742Z,83.63
2019-02-04T18:09:29.226Z,87.43
2019-02-04T18:11:59.008Z,83.33
2019-02-04T18:14:28.412Z,92.53
2019-02-04T18:16:57.860Z,87.10
2019-02-04T18:19:27.129Z,83.20
2019-02-04T18:21:56.923Z,81.83
2019-02-04T18:24:27.599Z,84.63
2019-02-04T18:26:57.255Z,76.23
2019-02-04T18:29:26.638Z,76.93
2019-02-04T18:31:55.892Z,81.67
2019-02-04T18:34:25.175Z,79.90
2019-02-04T18:36:54.751Z,83.17
2019-02-04T18:39:26.475Z,82.93
2019-02-04T18:41:55.816Z,79.33
2019-02-04T18:44:25.063Z,84.80
2019-02-04T18:46:57.219Z,90.80
2019-02-04T18:49:26.578Z,85.43
2019-02-04T18:51:57.123Z,105.47
2019-02-04T18:54:26.816Z,117.87
2019-02-04T18:56:56.257Z,129.00
2019-02-04T18:59:25.559Z,142.17
2019-02-04T19:01:57.012Z,134.70
2019-02-04T19:04:27.539Z,138.37
2019-02-04T19:06:57.673Z,130.40
2019-02-04T19:09:27.034Z,120.03
2019-02-04T19:11:56.528Z,124.50
2019-02-04T19:14:25.838Z,128.20
2019-02-04T19:16:55.196Z,142.03
2019-02-04T19:19:24.625Z,139.13
2019-02-04T19:21:53.971Z,137.17
2019-02-04T19:24:23.368Z,158.87
2019-02-04T19:26:54.110Z,159.23
2019-02-04T19:29:23.577Z,152.97
2019-02-04T19:31:52.982Z,147.77
2019-02-04T19:34:22.340Z,149.83
2019-02-04T19:36:51.639Z,151.00
2019-02-04T19:39:21.281Z,149.23
2019-02-04T19:41:52.956Z,142.60
2019-02-04T19:44:22.627Z,151.97
2019-02-04T19:46:51.871Z,146.30
2019-02-04T19:49:21.273Z,157.47
2019-02-04T19:51:50.603Z,143.53
2019-02-04T19:54:21.668Z,144.53
2019-02-04T19:56:51.223Z,130.40
2019-02-04T19:59:21.313Z,138.40
2019-02-04T20:01:50.683Z,135.43
2019-02-04T20:04:20.065Z,126.13
2019-02-04T20:06:49.458Z,129.63
2019-02-04T20:09:18.863Z,120.20
2019-02-04T20:11:48.104Z,119.80
2019-02-04T20:14:17.775Z,116.03
2019-02-04T20:16:47.169Z,113.37
2019-02-04T20:19:20.333Z,111.23
2019-02-04T20:21:49.726Z,106.80
2019-02-04T20:24:19.398Z,98.30
2019-02-04T20:26:48.964Z,102.73
2019-02-04T20:29:18.608Z,100.40
2019-02-04T20:31:48.023Z,96.30
2019-02-04T20:34:17.643Z,100.10
2019-02-04T20:36:47.075Z,112.67
2019-02-04T20:39:16.452Z,115.10
2019-02-04T20:41:45.794Z,111.97
2019-02-04T20:44:19.639Z,114.47
2019-02-04T20:46:49.229Z,113.00
2019-02-04T20:49:18.544Z,115.83
2019-02-04T20:51:49.325Z,114.13
2019-02-04T20:54:21.363Z,127.80
2019-02-04T20:56:49.755Z,125.40
2019-02-04T20:59:19.047Z,136.20
2019-02-04T21:01:48.443Z,137.13
2019-02-04T21:04:17.933Z,130.43
2019-02-04T21:06:55.673Z,121.60
2019-02-04T21:09:18.277Z,131.60
2019-02-04T21:11:47.937Z,130.53
2019-02-04T21:14:17.238Z,130.93
2019-02-04T21:16:46.678Z,131.70
2019-02-04T21:19:16.247Z,134.03
2019-02-04T21:21:45.639Z,130.43
2019-02-04T21:24:15.123Z,136.83
2019-02-04T21:26:46.811Z,133.77
2019-02-04T21:29:16.532Z,131.43
2019-02-04T21:31:45.931Z,131.00
2019-02-04T21:34:16.564Z,126.93
2019-02-04T21:36:45.860Z,143.53
2019-02-04T21:39:15.232Z,132.37
2019-02-04T21:41:46.315Z,133.07
2019-02-04T21:44:15.707Z,132.00
2019-02-04T21:46:44.916Z,129.13
2019-02-04T21:49:14.310Z,134.00
2019-02-04T21:51:43.695Z,135.50
2019-02-04T21:54:12.949Z,132.17
2019-02-04T21:56:42.183Z,133.83
2019-02-04T21:59:11.826Z,133.03
2019-02-04T22:01:41.155Z,138.60
2019-02-04T22:04:10.883Z,136.00
2019-02-04T22:06:40.505Z,127.13
2019-02-04T22:09:10.934Z,136.47
2019-02-04T22:11:40.227Z,131.30
2019-02-04T22:14:09.919Z,129.63
2019-02-04T22:16:39.271Z,139.03
2019-02-04T22:19:08.954Z,139.07
2019-02-04T22:21:38.292Z,137.67
2019-02-04T22:24:09.938Z,130.30
2019-02-04T22:26:39.495Z,130.37
2019-02-04T22:29:09.408Z,130.43
2019-02-04T22:31:39.016Z,136.03
2019-02-04T22:34:08.740Z,130.07
2019-02-04T22:36:38.079Z,115.30
2019-02-04T22:39:09.024Z,119.03
2019-02-04T22:41:38.785Z,115.17
2019-02-04T22:44:09.063Z,110.37
2019-02-04T22:46:38.394Z,109.40
2019-02-04T22:49:08.179Z,105.93
2019-02-04T22:51:37.842Z,98.00
2019-02-04T22:54:08.865Z,102.17
2019-02-04T22:56:39.010Z,95.67
2019-02-04T22:59:08.666Z,103.23
2019-02-04T23:01:57.750Z,94.77
2019-02-04T23:04:28.165Z,93.57
2019-02-04T23:06:59.582Z,89.03
2019-02-04T23:09:28.980Z,94.87
2019-02-04T23:11:58.251Z,94.87
2019-02-04T23:14:27.467Z,95.33
2019-02-04T23:16:56.875Z,99.33
2019-02-04T23:19:26.261Z,94.27
2019-02-04T23:21:55.654Z,96.50
2019-02-04T23:24:27.159Z,97.87
2019-02-04T23:26:56.707Z,105.27
2019-02-04T23:29:26.119Z,107.57
2019-02-04T23:31:55.792Z,104.60
2019-02-04T23:34:25.139Z,103.30
2019-02-04T23:36:54.504Z,97.50
2019-02-04T23:39:23.859Z,92.80
2019-02-04T23:41:57.477Z,95.83
2019-02-04T23:44:24.208Z,99.13
2019-02-04T23:46:53.644Z,105.07
2019-02-04T23:49:23.090Z,107.33
2019-02-04T23:51:52.602Z,117.77
2019-02-04T23:54:22.486Z,122.40
2019-02-04T23:56:51.784Z,124.13
2019-02-04T23:59:21.071Z,127.93
